Time;durP1;ratioP1;P1;durP2;ratioP2;P2;SDS_P1;SDS_P2;PMS_P1;PMS_P2;Temp;Humidity;BMP_temperature;BMP_pressure;BME280_temperature;BME280_humidity;BME280_pressure;Samples;Min_cycle;Max_cycle;Signal;HPM_P1;HPM_P2
2021/12/02 00:01:13;;;;;;;734.27;682.80;;;5.40;99.90;;;;;;4866253;29;20461;-82
2021/12/02 00:03:40;;;;;;;727.40;676.50;;;5.40;99.90;;;;;;4865950;29;20476;-82
2021/12/02 00:06:10;;;;;;;734.33;682.57;;;5.40;99.90;;;;;;4866376;29;20460;-83
2021/12/02 00:08:36;;;;;;;725.73;675.13;;;5.40;99.90;;;;;;4866801;29;20476;-82
2021/12/02 00:11:03;;;;;;;733.67;682.60;;;5.40;99.90;;;;;;4871339;29;20463;-82
2021/12/02 00:13:37;;;;;;;729.23;680.03;;;5.50;99.90;;;;;;4865427;29;20468;-83
2021/12/02 00:16:16;;;;;;;704.03;656.80;;;5.50;99.90;;;;;;4865272;29;20471;-82
2021/12/02 00:21:30;;;;;;;712.03;663.60;;;5.60;99.90;;;;;;4883625;29;20539;-82
2021/12/02 00:24:02;;;;;;;709.50;662.07;;;5.50;99.90;;;;;;4879452;29;20460;-82
2021/12/02 00:26:31;;;;;;;712.93;665.53;;;5.50;99.90;;;;;;4865097;29;20483;-82
2021/12/02 00:29:00;;;;;;;720.70;672.73;;;5.50;99.90;;;;;;4867802;29;20480;-83
2021/12/02 00:31:29;;;;;;;716.50;669.80;;;5.50;99.90;;;;;;4869244;29;20476;-83
2021/12/02 00:33:59;;;;;;;714.63;667.27;;;5.60;99.90;;;;;;4869471;29;20456;-82
2021/12/02 00:36:29;;;;;;;713.20;666.13;;;5.60;99.90;;;;;;4877572;29;20459;-82
2021/12/02 00:38:57;;;;;;;716.50;668.60;;;5.60;99.90;;;;;;4887471;29;20495;-82
2021/12/02 00:41:27;;;;;;;722.80;675.13;;;5.60;99.90;;;;;;4888585;29;20467;-82
2021/12/02 00:43:56;;;;;;;719.23;671.70;;;5.60;99.90;;;;;;4887668;29;20471;-83
2021/12/02 00:46:25;;;;;;;722.40;674.27;;;5.60;99.90;;;;;;4887144;29;20475;-82
2021/12/02 00:48:53;;;;;;;708.87;662.07;;;5.60;99.90;;;;;;4887602;29;20480;-82
2021/12/02 00:51:22;;;;;;;691.73;648.87;;;5.60;99.90;;;;;;4888216;29;20491;-82
2021/12/02 00:53:52;;;;;;;684.50;642.53;;;5.60;99.90;;;;;;4887740;29;20953;-82
2021/12/02 00:56:23;;;;;;;690.87;648.83;;;5.60;99.90;;;;;;4888283;29;20896;-82
2021/12/02 00:58:51;;;;;;;673.90;635.43;;;5.70;99.90;;;;;;4888238;29;20491;-82
2021/12/02 01:01:20;;;;;;;677.00;637.57;;;5.70;99.90;;;;;;4888544;29;20470;-82
2021/12/02 01:03:49;;;;;;;665.97;629.20;;;5.70;99.90;;;;;;4887929;29;20467;-82
2021/12/02 01:06:16;;;;;;;656.67;621.07;;;5.70;99.90;;;;;;4887460;29;20869;-81
2021/12/02 01:08:44;;;;;;;651.13;615.53;;;5.80;99.90;;;;;;4888937;29;20490;-83
2021/12/02 01:11:12;;;;;;;639.53;605.23;;;5.70;99.90;;;;;;4888526;29;20842;-83
2021/12/02 01:13:39;;;;;;;604.17;574.30;;;5.70;99.90;;;;;;4875363;29;20463;-83
2021/12/02 01:16:06;;;;;;;618.20;587.90;;;5.70;99.90;;;;;;4869647;29;20464;-81
2021/12/02 01:18:33;;;;;;;624.80;593.53;;;5.70;99.90;;;;;;4869025;29;20492;-81
2021/12/02 01:21:03;;;;;;;606.23;577.00;;;5.70;99.90;;;;;;4870070;29;20464;-83
2021/12/02 01:23:32;;;;;;;599.47;571.00;;;5.80;99.90;;;;;;4869909;29;20471;-82
2021/12/02 01:26:03;;;;;;;641.33;609.83;;;5.70;99.90;;;;;;4869904;29;20460;-82
2021/12/02 01:28:31;;;;;;;657.63;624.13;;;5.70;99.90;;;;;;4869936;29;20491;-83
2021/12/02 01:30:59;;;;;;;666.47;630.97;;;5.70;99.90;;;;;;4870188;29;20467;-83
2021/12/02 01:33:27;;;;;;;697.50;659.20;;;5.60;99.90;;;;;;4869985;29;20982;-82
2021/12/02 01:35:57;;;;;;;697.97;658.83;;;5.60;99.90;;;;;;4870087;29;20486;-83
2021/12/02 01:38:25;;;;;;;696.27;657.27;;;5.60;99.90;;;;;;4871631;29;20492;-82
2021/12/02 01:40:52;;;;;;;676.20;639.93;;;5.70;99.90;;;;;;4871475;29;20496;-82
2021/12/02 01:43:22;;;;;;;631.10;599.00;;;5.60;99.90;;;;;;4871199;29;20464;-82
2021/12/02 01:45:49;;;;;;;634.27;602.77;;;5.70;99.90;;;;;;4870543;29;20468;-82
2021/12/02 01:48:25;;;;;;;652.50;619.00;;;5.70;99.90;;;;;;4869919;29;20481;-82
2021/12/02 01:51:01;;;;;;;614.83;583.80;;;5.70;99.90;;;;;;4871180;29;20560;-82
2021/12/02 01:53:33;;;;;;;656.13;621.97;;;5.60;99.90;;;;;;4870291;29;20995;-82
2021/12/02 01:56:10;;;;;;;675.33;640.07;;;5.60;99.90;;;;;;4869620;29;20465;-83
2021/12/02 01:58:43;;;;;;;675.90;639.40;;;5.70;99.90;;;;;;4868975;29;20499;-82
2021/12/02 02:01:16;;;;;;;654.90;620.20;;;5.60;99.90;;;;;;4869920;29;20460;-82
2021/12/02 02:03:43;;;;;;;629.70;596.27;;;5.70;99.90;;;;;;4867999;29;20848;-82
2021/12/02 02:06:11;;;;;;;659.83;622.87;;;5.60;99.90;;;;;;4866732;29;20983;-83
2021/12/02 02:08:45;;;;;;;660.93;622.73;;;5.60;99.90;;;;;;4866660;29;21186;-83
2021/12/02 02:11:12;;;;;;;675.47;636.30;;;5.50;99.90;;;;;;4867543;29;20452;-83
2021/12/02 02:13:42;;;;;;;698.93;656.10;;;5.50;99.90;;;;;;4881260;29;20456;-83
2021/12/02 02:16:08;;;;;;;665.37;627.77;;;5.50;99.90;;;;;;4885581;29;20463;-83
2021/12/02 02:18:36;;;;;;;686.80;645.33;;;5.50;99.90;;;;;;4885524;29;20487;-82
2021/12/02 02:21:08;;;;;;;644.77;608.77;;;5.40;99.90;;;;;;4885304;29;20464;-83
2021/12/02 02:23:41;;;;;;;681.90;641.70;;;5.40;99.90;;;;;;4885600;29;20466;-83
2021/12/02 02:26:09;;;;;;;694.60;650.90;;;5.40;99.90;;;;;;4886275;29;20495;-83
2021/12/02 02:28:36;;;;;;;700.57;655.27;;;5.40;99.90;;;;;;4886344;29;20832;-83
2021/12/02 02:31:03;;;;;;;687.87;645.73;;;5.40;99.90;;;;;;4886286;29;21165;-82
2021/12/02 02:33:36;;;;;;;672.07;632.13;;;5.30;99.90;;;;;;4885822;29;20919;-83
2021/12/02 02:36:06;;;;;;;701.57;657.80;;;5.40;99.90;;;;;;4884955;29;20554;-83
2021/12/02 02:38:33;;;;;;;672.93;631.53;;;5.30;99.90;;;;;;4886504;29;20490;-83
2021/12/02 02:41:02;;;;;;;698.17;654.10;;;5.30;99.90;;;;;;4885516;29;20467;-83
2021/12/02 02:43:31;;;;;;;703.90;658.80;;;5.30;99.90;;;;;;4885909;29;20479;-83
2021/12/02 02:45:58;;;;;;;716.73;669.30;;;5.20;99.90;;;;;;4886162;29;21002;-82
2021/12/02 02:48:24;;;;;;;703.00;658.40;;;5.20;99.90;;;;;;4885717;29;20488;-83
2021/12/02 02:50:51;;;;;;;699.50;656.20;;;5.30;99.90;;;;;;4885127;29;20470;-83
2021/12/02 02:53:22;;;;;;;668.47;629.60;;;5.30;99.90;;;;;;4884771;29;20459;-83
2021/12/02 02:55:58;;;;;;;683.87;640.87;;;5.30;99.90;;;;;;4884679;29;20638;-82
2021/12/02 02:58:30;;;;;;;708.70;662.10;;;5.30;99.90;;;;;;4883984;29;20547;-83
2021/12/02 03:01:04;;;;;;;688.63;646.03;;;5.20;99.90;;;;;;4884393;29;20491;-83
2021/12/02 03:03:37;;;;;;;687.40;646.57;;;5.20;99.90;;;;;;4883965;29;20478;-83
2021/12/02 03:06:20;;;;;;;707.97;663.70;;;5.20;99.90;;;;;;4883380;29;20451;-82
2021/12/02 03:08:54;;;;;;;710.10;665.80;;;5.20;99.90;;;;;;4880689;29;20482;-83
2021/12/02 03:11:21;;;;;;;727.67;681.47;;;5.20;99.90;;;;;;4876124;29;20455;-83
2021/12/02 03:13:51;;;;;;;719.33;672.70;;;5.20;99.90;;;;;;4869403;29;21049;-83
2021/12/02 03:19:03;;;;;;;670.63;631.33;;;5.20;99.90;;;;;;4867545;29;20472;-83
2021/12/02 03:21:30;;;;;;;682.53;641.60;;;5.20;99.90;;;;;;4868725;29;20464;-83
2021/12/02 03:24:00;;;;;;;728.80;682.70;;;5.20;99.90;;;;;;4867526;29;20469;-82
2021/12/02 03:26:27;;;;;;;715.37;670.00;;;5.20;99.90;;;;;;4866546;29;20471;-82
2021/12/02 03:28:55;;;;;;;685.70;646.50;;;5.20;99.90;;;;;;4866801;29;20492;-83
2021/12/02 03:31:22;;;;;;;670.07;631.60;;;5.20;99.90;;;;;;4866454;29;20472;-83
2021/12/02 03:33:50;;;;;;;651.57;616.90;;;5.20;99.90;;;;;;4866127;29;20460;-83
2021/12/02 03:36:18;;;;;;;655.53;619.67;;;5.10;99.90;;;;;;4865535;29;20465;-83
2021/12/02 03:38:45;;;;;;;684.63;644.83;;;5.00;99.90;;;;;;4865569;29;20484;-84
2021/12/02 03:41:14;;;;;;;710.27;666.87;;;5.10;99.90;;;;;;4866279;29;20456;-83
2021/12/02 03:43:42;;;;;;;682.17;641.17;;;5.00;99.90;;;;;;4865683;29;20464;-84
2021/12/02 03:46:12;;;;;;;668.67;629.57;;;5.10;99.90;;;;;;4866294;29;20969;-84
2021/12/02 03:48:39;;;;;;;645.00;607.90;;;5.10;99.90;;;;;;4866309;29;20885;-84
2021/12/02 03:51:06;;;;;;;631.73;596.50;;;5.10;99.90;;;;;;4865703;29;20460;-83
2021/12/02 03:53:34;;;;;;;582.80;552.80;;;5.10;99.90;;;;;;4866910;29;20460;-83
2021/12/02 03:56:01;;;;;;;568.00;541.40;;;5.10;99.90;;;;;;4865784;29;20497;-83
2021/12/02 03:58:29;;;;;;;570.00;545.23;;;5.00;99.90;;;;;;4865937;29;20488;-83
2021/12/02 04:00:56;;;;;;;607.83;579.30;;;4.80;99.90;;;;;;4865544;29;21004;-83
2021/12/02 04:03:23;;;;;;;612.43;584.70;;;4.80;99.90;;;;;;4864951;29;20846;-83
2021/12/02 04:05:50;;;;;;;567.20;542.93;;;4.70;99.90;;;;;;4865717;29;20460;-83
2021/12/02 04:08:17;;;;;;;584.97;559.30;;;4.60;99.90;;;;;;4866097;29;20859;-82
2021/12/02 04:10:44;;;;;;;656.77;621.73;;;4.60;99.90;;;;;;4865009;29;20814;-83
2021/12/02 04:13:17;;;;;;;658.77;624.50;;;4.60;99.90;;;;;;4864473;29;20476;-82
2021/12/02 04:15:50;;;;;;;627.80;597.50;;;4.50;99.90;;;;;;4865306;29;20464;-83
2021/12/02 04:18:17;;;;;;;623.00;593.07;;;4.30;99.90;;;;;;4864098;29;20914;-82
2021/12/02 04:20:44;;;;;;;671.33;636.53;;;4.20;99.90;;;;;;4866321;29;20475;-83
2021/12/02 04:23:10;;;;;;;704.93;663.80;;;4.00;99.90;;;;;;4865911;29;20840;-83
2021/12/02 04:25:37;;;;;;;718.07;672.77;;;4.00;99.90;;;;;;4866697;29;20460;-84
2021/12/02 04:28:04;;;;;;;739.40;687.33;;;3.90;99.90;;;;;;4865074;29;20481;-83
2021/12/02 04:30:31;;;;;;;720.93;666.37;;;3.90;99.90;;;;;;4864488;29;20452;-83
2021/12/02 04:32:59;;;;;;;724.13;666.73;;;4.00;99.90;;;;;;4864765;29;20472;-83
2021/12/02 04:35:26;;;;;;;719.60;661.33;;;4.00;99.90;;;;;;4864242;29;20463;-83
2021/12/02 04:37:53;;;;;;;726.57;664.17;;;4.30;99.90;;;;;;4864832;29;20493;-83
2021/12/02 04:40:21;;;;;;;722.07;661.70;;;4.30;99.90;;;;;;4864794;29;20456;-83
2021/12/02 04:42:49;;;;;;;728.30;672.13;;;4.40;99.90;;;;;;4864498;29;20492;-83
2021/12/02 04:45:16;;;;;;;728.63;673.10;;;4.50;99.90;;;;;;4864409;29;20461;-83
2021/12/02 04:47:43;;;;;;;732.60;678.27;;;4.60;99.90;;;;;;4864705;29;20487;-83
2021/12/02 04:50:12;;;;;;;727.10;673.73;;;4.50;99.90;;;;;;4865509;29;20492;-83
2021/12/02 04:52:39;;;;;;;725.47;672.80;;;4.50;99.90;;;;;;4866052;29;20460;-83
2021/12/02 04:55:07;;;;;;;728.50;677.63;;;4.50;99.90;;;;;;4865359;29;20488;-83
2021/12/02 04:57:34;;;;;;;725.00;677.60;;;4.50;99.90;;;;;;4866623;29;20507;-83
2021/12/02 05:00:01;;;;;;;700.40;656.70;;;4.60;99.90;;;;;;4880253;29;20864;-85
2021/12/02 05:02:30;;;;;;;710.37;665.67;;;4.60;99.90;;;;;;4885152;29;20459;-83
2021/12/02 05:04:56;;;;;;;697.40;654.17;;;4.50;99.90;;;;;;4887975;29;20468;-84
2021/12/02 05:07:24;;;;;;;679.43;638.53;;;4.40;99.90;;;;;;4886476;29;20471;-83
2021/12/02 05:09:51;;;;;;;665.13;627.53;;;4.40;99.90;;;;;;4887300;29;21079;-83
2021/12/02 05:12:18;;;;;;;661.70;623.87;;;4.40;99.90;;;;;;4879809;29;20467;-82
2021/12/02 05:14:45;;;;;;;657.57;621.17;;;4.30;99.90;;;;;;4866788;29;20470;-83
2021/12/02 05:17:11;;;;;;;659.53;622.80;;;4.40;99.90;;;;;;4870392;29;20480;-83
2021/12/02 05:19:38;;;;;;;634.30;600.90;;;4.40;99.90;;;;;;4869017;29;20478;-85
2021/12/02 05:22:05;;;;;;;617.23;585.10;;;4.50;99.90;;;;;;4868927;29;20467;-84
2021/12/02 05:24:33;;;;;;;617.63;586.27;;;4.50;99.90;;;;;;4869243;29;20460;-83
2021/12/02 05:26:59;;;;;;;615.50;583.80;;;4.50;99.90;;;;;;4868435;29;20484;-84
2021/12/02 05:29:26;;;;;;;593.87;564.10;;;4.50;99.90;;;;;;4869579;29;20488;-83
2021/12/02 05:31:53;;;;;;;569.17;541.93;;;4.60;99.90;;;;;;4868483;29;20490;-84
2021/12/02 05:34:20;;;;;;;577.30;548.67;;;4.60;99.90;;;;;;4869573;29;20460;-83
2021/12/02 05:36:46;;;;;;;544.23;518.93;;;4.50;99.90;;;;;;4870182;29;20867;-83
2021/12/02 05:39:13;;;;;;;539.80;515.23;;;4.60;99.90;;;;;;4869901;29;20467;-84
2021/12/02 05:41:42;;;;;;;513.23;489.83;;;4.50;99.90;;;;;;4871138;29;20804;-83
2021/12/02 05:44:08;;;;;;;548.13;523.33;;;4.50;99.90;;;;;;4868116;29;20472;-83
2021/12/02 05:46:35;;;;;;;505.50;483.83;;;4.40;99.90;;;;;;4868493;29;20856;-82
2021/12/02 05:49:02;;;;;;;530.13;507.13;;;4.40;99.90;;;;;;4867402;29;20511;-83
2021/12/02 05:51:29;;;;;;;510.23;488.50;;;4.30;99.90;;;;;;4867653;29;20452;-82
2021/12/02 05:53:56;;;;;;;514.70;492.63;;;4.30;99.90;;;;;;4868039;29;20452;-82
2021/12/02 05:56:23;;;;;;;409.10;392.63;;;4.30;99.90;;;;;;4867814;29;20456;-82
2021/12/02 05:58:51;;;;;;;420.60;404.17;;;4.20;99.90;;;;;;4865870;29;21005;-82
2021/12/02 06:01:17;;;;;;;401.60;386.27;;;4.20;99.90;;;;;;4866892;29;20460;-83
2021/12/02 06:03:44;;;;;;;345.47;332.77;;;4.10;99.90;;;;;;4866169;29;20968;-82
2021/12/02 06:06:11;;;;;;;409.23;393.27;;;4.20;99.90;;;;;;4865401;29;20472;-83
2021/12/02 06:08:38;;;;;;;393.17;378.37;;;4.00;99.90;;;;;;4870582;29;20479;-84
2021/12/02 06:11:04;;;;;;;367.07;353.43;;;4.00;99.90;;;;;;4874667;29;20503;-82
2021/12/02 06:13:31;;;;;;;371.60;358.13;;;3.90;99.90;;;;;;4872434;29;20460;-83
2021/12/02 06:15:59;;;;;;;413.63;397.97;;;3.90;99.90;;;;;;4865435;29;20464;-83
2021/12/02 06:18:26;;;;;;;428.20;411.83;;;3.90;99.90;;;;;;4870204;29;20478;-84
2021/12/02 06:20:54;;;;;;;483.50;463.50;;;3.90;99.90;;;;;;4878884;29;20452;-82
2021/12/02 06:23:21;;;;;;;494.87;473.03;;;3.90;99.90;;;;;;4867004;29;20500;-82
2021/12/02 06:25:48;;;;;;;441.17;423.43;;;3.90;99.90;;;;;;4878698;29;20547;-82
2021/12/02 06:28:16;;;;;;;487.77;467.77;;;4.00;99.90;;;;;;4886066;29;20482;-82
2021/12/02 06:30:43;;;;;;;472.17;453.07;;;4.00;99.90;;;;;;4883555;29;20605;-82
2021/12/02 06:33:12;;;;;;;486.90;465.80;;;4.00;99.90;;;;;;4885106;29;20459;-82
2021/12/02 06:35:39;;;;;;;507.13;485.80;;;4.00;99.90;;;;;;4884070;29;20915;-82
2021/12/02 06:38:06;;;;;;;529.77;506.77;;;3.90;99.90;;;;;;4882591;29;20480;-83
2021/12/02 06:40:34;;;;;;;536.17;512.70;;;3.90;99.90;;;;;;4881797;29;20842;-80
2021/12/02 06:43:01;;;;;;;554.57;528.93;;;3.90;99.90;;;;;;4882644;29;20459;-81
2021/12/02 06:45:28;;;;;;;574.87;548.57;;;3.90;99.90;;;;;;4882357;29;20460;-81
2021/12/02 06:47:58;;;;;;;557.63;532.37;;;3.90;99.90;;;;;;4882843;29;20566;-82
2021/12/02 06:50:28;;;;;;;569.67;543.77;;;3.90;99.90;;;;;;4883608;29;20574;-81
2021/12/02 06:52:56;;;;;;;558.00;532.30;;;4.00;99.90;;;;;;4882195;29;20460;-81
2021/12/02 06:55:23;;;;;;;565.47;539.33;;;4.00;99.90;;;;;;4864889;29;20465;-81
2021/12/02 06:57:50;;;;;;;520.67;497.70;;;4.10;99.90;;;;;;4864844;29;20492;-81
2021/12/02 07:00:19;;;;;;;546.10;521.73;;;4.10;99.90;;;;;;4864551;29;20850;-81
2021/12/02 07:02:46;;;;;;;504.47;482.20;;;4.20;99.90;;;;;;4865274;29;20461;-81
2021/12/02 07:05:15;;;;;;;518.30;496.20;;;4.10;99.90;;;;;;4862821;29;20460;-81
2021/12/02 07:07:45;;;;;;;516.70;494.27;;;4.20;99.90;;;;;;4870123;29;20483;-81
2021/12/02 07:10:15;;;;;;;529.77;507.10;;;4.10;99.90;;;;;;4883444;29;20487;-81
2021/12/02 07:12:44;;;;;;;493.23;471.73;;;4.10;99.90;;;;;;4882792;29;20480;-81
2021/12/02 07:15:16;;;;;;;458.57;440.37;;;4.00;99.90;;;;;;4882517;29;20459;-80
2021/12/02 07:17:44;;;;;;;465.27;446.73;;;4.00;99.90;;;;;;4882691;29;20490;-81
2021/12/02 07:20:12;;;;;;;419.53;403.50;;;4.00;99.90;;;;;;4882711;29;20493;-81
2021/12/02 07:22:39;;;;;;;408.27;392.20;;;4.00;99.90;;;;;;4882200;29;20456;-81
2021/12/02 07:25:08;;;;;;;439.90;422.83;;;4.00;99.90;;;;;;4882976;29;20460;-82
2021/12/02 07:27:34;;;;;;;422.30;405.77;;;4.00;99.90;;;;;;4881882;29;20850;-81
2021/12/02 07:30:01;;;;;;;525.70;503.50;;;4.00;99.90;;;;;;4883376;29;20522;-81
2021/12/02 07:32:35;;;;;;;446.20;428.83;;;3.90;99.90;;;;;;4884749;29;20459;-81
2021/12/02 07:35:08;;;;;;;443.00;425.90;;;3.90;99.90;;;;;;4883488;29;21014;-81
2021/12/02 07:37:35;;;;;;;466.37;448.27;;;3.90;99.90;;;;;;4883875;29;20480;-80
2021/12/02 07:40:04;;;;;;;423.23;406.90;;;3.90;99.90;;;;;;4883008;29;20455;-81
2021/12/02 07:42:32;;;;;;;454.17;435.77;;;3.90;99.90;;;;;;4876636;29;20482;-80
2021/12/02 07:44:59;;;;;;;439.73;422.43;;;3.80;99.90;;;;;;4881155;29;20550;-81
2021/12/02 07:47:26;;;;;;;508.30;487.37;;;3.90;99.90;;;;;;4881609;29;20483;-80
2021/12/02 07:49:53;;;;;;;519.53;497.93;;;3.80;99.90;;;;;;4881330;29;20514;-81
2021/12/02 07:52:24;;;;;;;446.93;429.30;;;3.90;99.90;;;;;;4881753;29;20482;-81
2021/12/02 07:54:52;;;;;;;504.37;483.87;;;3.80;99.90;;;;;;4881658;29;20847;-81
2021/12/02 07:57:19;;;;;;;500.73;480.37;;;3.80;99.90;;;;;;4881551;29;20491;-80
2021/12/02 07:59:49;;;;;;;552.60;528.37;;;3.80;99.90;;;;;;4881109;29;20467;-80
2021/12/02 08:02:16;;;;;;;587.67;560.47;;;3.80;99.90;;;;;;4880973;29;20948;-81
2021/12/02 08:04:44;;;;;;;577.93;552.00;;;3.70;99.90;;;;;;4881629;29;20842;-80
2021/12/02 08:07:11;;;;;;;575.67;549.23;;;3.80;99.90;;;;;;4880792;29;20479;-80
2021/12/02 08:09:38;;;;;;;577.07;551.60;;;3.80;99.90;;;;;;4881596;29;20996;-81
2021/12/02 08:12:05;;;;;;;543.50;519.20;;;3.80;99.90;;;;;;4881065;29;20466;-80
2021/12/02 08:14:32;;;;;;;521.53;499.43;;;3.80;99.90;;;;;;4881313;29;20456;-81
2021/12/02 08:17:01;;;;;;;541.07;518.27;;;3.70;99.90;;;;;;4881095;29;20487;-81
2021/12/02 08:19:27;;;;;;;594.53;567.47;;;3.70;99.90;;;;;;4881916;29;20459;-80
2021/12/02 08:21:54;;;;;;;573.53;547.67;;;3.60;99.90;;;;;;4881869;29;20463;-81
2021/12/02 08:24:23;;;;;;;547.00;523.73;;;3.70;99.90;;;;;;4881231;29;20459;-80
2021/12/02 08:26:50;;;;;;;569.10;543.60;;;3.60;99.90;;;;;;4880737;29;20467;-80
2021/12/02 08:29:17;;;;;;;597.77;569.63;;;3.60;99.90;;;;;;4881538;29;20956;-81
2021/12/02 08:31:44;;;;;;;521.80;498.90;;;3.70;99.90;;;;;;4881919;29;20490;-81
2021/12/02 08:34:13;;;;;;;576.73;550.53;;;3.70;99.90;;;;;;4882860;29;20919;-81
2021/12/02 08:36:45;;;;;;;565.20;540.20;;;3.60;99.90;;;;;;4881700;29;20463;-81
2021/12/02 08:39:17;;;;;;;517.47;495.77;;;3.60;99.90;;;;;;4881815;29;20519;-82
2021/12/02 08:41:48;;;;;;;540.93;517.80;;;3.50;99.90;;;;;;4881915;29;20459;-80
2021/12/02 08:44:15;;;;;;;574.17;548.73;;;3.50;99.90;;;;;;4881646;29;20499;-81
2021/12/02 08:46:41;;;;;;;646.83;615.17;;;3.50;99.90;;;;;;4881406;29;20531;-81
2021/12/02 08:49:08;;;;;;;632.17;602.03;;;3.50;99.90;;;;;;4881912;29;20464;-81
2021/12/02 08:51:37;;;;;;;560.07;535.17;;;3.60;99.90;;;;;;4883805;29;20490;-79
2021/12/02 08:54:04;;;;;;;591.17;563.70;;;3.80;99.90;;;;;;4884723;29;20471;-81
2021/12/02 08:56:31;;;;;;;534.00;511.00;;;3.80;99.90;;;;;;4884130;29;20463;-80
2021/12/02 08:58:58;;;;;;;497.97;477.40;;;3.90;99.90;;;;;;4884573;29;20845;-81
2021/12/02 09:01:27;;;;;;;471.63;452.52;;;3.80;99.90;;;;;;4885424;29;20479;-81
2021/12/02 09:03:54;;;;;;;533.43;511.37;;;3.70;99.90;;;;;;4885340;29;20676;-81
2021/12/02 09:06:22;;;;;;;542.47;519.60;;;3.60;99.90;;;;;;4884352;29;20466;-81
2021/12/02 09:08:53;;;;;;;492.53;473.33;;;3.60;99.90;;;;;;4885625;29;20226;-81
2021/12/02 09:11:20;;;;;;;528.33;506.13;;;3.60;99.90;;;;;;4885530;29;20471;-81
2021/12/02 09:13:47;;;;;;;524.93;503.70;;;3.70;99.90;;;;;;4885268;29;20463;-81
2021/12/02 09:16:14;;;;;;;447.93;430.33;;;4.00;99.90;;;;;;4885319;29;20460;-81
2021/12/02 09:18:40;;;;;;;470.97;452.10;;;4.00;99.90;;;;;;4885524;29;20486;-80
2021/12/02 09:21:08;;;;;;;458.73;440.43;;;4.10;99.90;;;;;;4884791;29;20466;-81
2021/12/02 09:23:35;;;;;;;483.23;463.73;;;4.20;99.90;;;;;;4886010;29;20471;-80
2021/12/02 09:26:03;;;;;;;474.77;455.40;;;4.40;99.90;;;;;;4885728;29;20883;-80
2021/12/02 09:28:30;;;;;;;431.23;414.20;;;4.50;99.90;;;;;;4885522;29;20483;-80
2021/12/02 09:30:57;;;;;;;337.50;324.67;;;4.70;99.90;;;;;;4886365;29;20483;-80
2021/12/02 09:33:23;;;;;;;257.47;248.57;;;4.60;99.90;;;;;;4884642;29;20463;-81
2021/12/02 09:35:50;;;;;;;247.47;239.00;;;4.40;99.90;;;;;;4886123;29;20769;-81
2021/12/02 09:38:17;;;;;;;307.90;297.10;;;4.10;99.90;;;;;;4885128;29;20491;-81
2021/12/02 09:40:44;;;;;;;246.27;238.00;;;4.20;99.90;;;;;;4885291;29;20810;-81
2021/12/02 09:43:14;;;;;;;262.17;253.07;;;4.20;99.90;;;;;;4884916;29;20472;-80
2021/12/02 09:45:41;;;;;;;266.77;257.60;;;4.10;99.90;;;;;;4884756;29;20524;-81
2021/12/02 09:48:09;;;;;;;214.87;207.57;;;4.20;99.90;;;;;;4886233;29;20484;-81
2021/12/02 09:50:39;;;;;;;266.50;257.57;;;4.20;99.90;;;;;;4884962;29;20507;-81
2021/12/02 09:53:09;;;;;;;258.60;250.10;;;4.30;99.90;;;;;;4885070;29;20463;-81
2021/12/02 09:55:45;;;;;;;246.73;238.70;;;4.50;99.90;;;;;;4883117;29;20515;-80
2021/12/02 09:58:20;;;;;;;205.50;198.37;;;4.60;99.90;;;;;;4884584;29;20483;-81
2021/12/02 10:00:50;;;;;;;179.90;173.90;;;4.50;99.90;;;;;;4884546;29;20540;-81
2021/12/02 10:03:26;;;;;;;178.40;172.13;;;4.40;99.90;;;;;;4885244;29;20459;-81
2021/12/02 10:06:03;;;;;;;162.50;156.57;;;4.40;99.90;;;;;;4884362;29;20456;-81
2021/12/02 10:08:33;;;;;;;181.87;175.73;;;4.40;99.90;;;;;;4884550;29;20479;-81
2021/12/02 10:11:02;;;;;;;248.50;240.30;;;4.40;99.90;;;;;;4884439;29;20474;-81
2021/12/02 10:13:37;;;;;;;139.93;134.50;;;4.60;99.90;;;;;;4884814;29;20466;-81
2021/12/02 10:16:12;;;;;;;123.63;119.33;;;4.40;99.90;;;;;;4884470;29;20447;-81
2021/12/02 10:18:50;;;;;;;134.57;129.07;;;4.40;99.90;;;;;;4883672;29;20486;-81
2021/12/02 10:21:24;;;;;;;122.90;118.27;;;4.30;99.90;;;;;;4885294;29;20777;-81
2021/12/02 10:23:53;;;;;;;131.90;127.30;;;4.30;99.90;;;;;;4884789;29;20501;-81
2021/12/02 10:26:20;;;;;;;134.23;129.23;;;4.20;99.90;;;;;;4884087;29;20490;-81
2021/12/02 10:28:51;;;;;;;125.40;120.77;;;4.30;99.90;;;;;;4883157;29;20483;-81
2021/12/02 10:31:24;;;;;;;97.03;92.90;;;4.30;99.90;;;;;;4884658;29;20498;-81
2021/12/02 10:33:54;;;;;;;183.17;176.97;;;4.30;99.90;;;;;;4884733;29;20460;-82
2021/12/02 10:36:27;;;;;;;144.20;138.87;;;4.40;99.90;;;;;;4884666;29;20460;-81
2021/12/02 10:38:55;;;;;;;130.10;125.33;;;4.40;99.90;;;;;;4884313;29;20476;-81
2021/12/02 10:41:24;;;;;;;156.60;151.00;;;4.40;99.90;;;;;;4884448;29;20539;-82
2021/12/02 10:44:15;;;;;;;119.17;114.97;;;4.40;99.90;;;;;;4883365;29;20463;-82
2021/12/02 10:46:53;;;;;;;111.43;107.03;;;4.50;99.90;;;;;;4881874;29;20463;-81
2021/12/02 10:49:21;;;;;;;114.00;109.60;;;4.50;99.90;;;;;;4883049;29;20650;-81
2021/12/02 10:51:51;;;;;;;58.93;56.43;;;4.80;99.90;;;;;;4883364;29;20566;-82
2021/12/02 10:54:20;;;;;;;84.23;80.63;;;5.20;99.90;;;;;;4884535;29;20511;-82
2021/12/02 10:56:50;;;;;;;28.20;26.30;;;5.40;99.90;;;;;;4883253;29;20463;-81
2021/12/02 10:59:42;;;;;;;22.73;21.43;;;5.50;99.90;;;;;;4884253;29;20869;-82
2021/12/02 11:02:17;;;;;;;14.10;12.67;;;5.40;99.90;;;;;;4882590;29;20484;-81
2021/12/02 11:04:46;;;;;;;14.90;13.83;;;5.40;99.90;;;;;;4884362;29;20449;-81
2021/12/02 11:07:22;;;;;;;15.70;14.57;;;5.30;99.90;;;;;;4882797;29;20486;-82
2021/12/02 11:09:52;;;;;;;12.77;11.70;;;5.20;99.90;;;;;;4884066;29;20416;-81
2021/12/02 11:12:22;;;;;;;9.33;8.63;;;5.10;99.90;;;;;;4883495;29;20486;-82
2021/12/02 11:15:03;;;;;;;17.13;16.03;;;5.00;99.90;;;;;;4884025;29;20527;-81
2021/12/02 11:17:33;;;;;;;19.83;18.83;;;5.20;99.90;;;;;;4883991;29;20514;-81
2021/12/02 11:20:04;;;;;;;18.40;16.90;;;5.20;99.90;;;;;;4883883;29;20952;-81
2021/12/02 11:22:31;;;;;;;13.60;12.60;;;5.20;99.90;;;;;;4883623;29;20443;-81
2021/12/02 11:25:00;;;;;;;16.20;15.17;;;4.90;99.90;;;;;;4882977;29;20847;-82
2021/12/02 11:27:30;;;;;;;17.57;16.57;;;4.90;99.90;;;;;;4882791;29;20480;-81
2021/12/02 11:30:05;;;;;;;17.73;16.67;;;4.90;99.90;;;;;;4883401;29;20550;-81
2021/12/02 11:32:38;;;;;;;14.93;13.67;;;4.80;99.90;;;;;;4883143;29;20490;-81
2021/12/02 11:35:09;;;;;;;23.30;22.00;;;4.50;99.90;;;;;;4882311;29;20448;-80
2021/12/02 11:37:38;;;;;;;25.17;22.97;;;4.50;99.90;;;;;;4882448;29;20483;-81
2021/12/02 11:40:07;;;;;;;51.93;49.60;;;4.30;99.90;;;;;;4882372;29;20459;-81
2021/12/02 11:42:35;;;;;;;72.90;70.17;;;4.10;99.90;;;;;;4881094;29;20463;-82
2021/12/02 11:45:04;;;;;;;93.80;90.40;;;4.00;99.90;;;;;;4881117;29;20872;-82
2021/12/02 11:47:31;;;;;;;195.00;188.63;;;4.00;99.90;;;;;;4880752;29;20475;-81
2021/12/02 11:49:58;;;;;;;247.30;239.23;;;4.10;99.90;;;;;;4880655;29;20467;-81
2021/12/02 11:52:25;;;;;;;199.80;193.13;;;4.10;99.90;;;;;;4880996;29;20494;-82
2021/12/02 11:54:52;;;;;;;180.07;173.87;;;4.20;99.90;;;;;;4881332;29;20464;-81
2021/12/02 11:57:20;;;;;;;122.00;117.37;;;4.50;99.90;;;;;;4880551;29;20516;-82
2021/12/02 11:59:47;;;;;;;144.93;139.63;;;4.40;99.90;;;;;;4880948;29;20472;-82
2021/12/02 12:02:19;;;;;;;72.97;69.77;;;4.40;99.90;;;;;;4881269;29;20463;-81
2021/12/02 12:05:02;;;;;;;34.07;32.03;;;4.30;99.90;;;;;;4882374;29;20878;-82
2021/12/02 12:07:46;;;;;;;24.67;23.40;;;4.30;99.90;;;;;;4881220;29;20486;-83
2021/12/02 12:10:20;;;;;;;43.70;41.63;;;4.40;99.90;;;;;;4880945;29;20459;-82
2021/12/02 12:12:47;;;;;;;51.97;49.40;;;4.80;99.90;;;;;;4881398;29;20503;-82
2021/12/02 12:15:34;;;;;;;32.50;30.53;;;5.30;99.90;;;;;;4881211;29;20464;-82
2021/12/02 12:18:04;;;;;;;8.57;6.90;;;5.70;99.90;;;;;;4881319;29;20501;-82
2021/12/02 12:20:54;;;;;;;10.00;7.67;;;5.90;93.80;;;;;;4881883;29;20466;-83
2021/12/02 12:23:47;;;;;;;12.27;7.07;;;5.60;91.00;;;;;;4881964;29;20463;-81
2021/12/02 12:26:33;;;;;;;10.60;8.50;;;5.40;93.40;;;;;;4885674;29;20459;-82
2021/12/02 12:29:34;;;;;;;7.47;6.23;;;5.10;93.90;;;;;;4886375;29;20508;-81
2021/12/02 12:35:21;;;;;;;10.00;7.57;;;4.80;99.90;;;;;;4884231;29;20447;-82
2021/12/02 12:37:56;;;;;;;11.10;10.07;;;4.60;99.30;;;;;;4885363;29;20475;-81
2021/12/02 12:40:26;;;;;;;11.23;10.13;;;4.60;99.90;;;;;;4885463;29;20885;-82